Ebeye, MH

5:08 PM MHT on May 27, 2015 (GMT +1200)
Wake Island Army Air Field | | Change Station
CLOSE
Current Station
Airport
Location: Wake Island, Wake Island Army,
Elevation: 13 ft
Nearby Weather Stations

Elev 13 ft 19.28 °N, 166.64 °E | Updated 10 minutes ago

Partly Cloudy
Partly Cloudy
84 °F
Feels Like 90 °F
N
13
Wind Variable Wind from ENE

Today
High -- | Low -- °F
--% Chance of Precip.
Yesterday
High -- | Low -- °F
Precip. -- in
6:18 AM 6:47 PM
Waxing Gibbous, 64% visible
Pressure 29.93 in
Visibility 6.2 miles
Clouds Few 2500 ft
Heat Index 90 °F
Dew Point 72 °F
Humidity 67%
Rainfall 0.07 in
Snow Depth Not available.
UV 3 out of 12
Pollen Not available.
Air Quality Not available.
Flu Activity
METAR PWAK 270458Z AUTO 07011KT 9999 FEW025 29/22 A2991 RMK AO2 SLP135 T02910224 $

More Conditions Fewer Conditions

Pressure 29.93 in
Visibility 6.2 miles
Clouds Few 2500 ft
Heat Index 90 °F
Dew Point 72 °F
Humidity 67%
Rainfall 0.07 in
Snow Depth Not available.
UV 3 out of 12
Pollen Not available.
Air Quality Not available.
Flu Activity
METAR PWAK 270458Z AUTO 07011KT 9999 FEW025 29/22 A2991 RMK AO2 SLP135 T02910224 $

More Conditions Fewer Conditions

10-Day Weather Forecast

Almanac

Astronomy

May. 27, 2015 Rise Set
Actual Time
Civil Twilight
Nautical Twilight
Astronomical Twilight
Moon
Length of Visible Light
Length of Day
Tomorrow will be .
, % of the Moon is Illuminated

Today's Extremes

State Highs State Lows

Community

WunderPhotos

Upload Photos

1,824,616 photos uploaded!

WunderBlogs® & News

Nearby

Air Quality

  Air Quality AQ Index Pollutant
Not available.

Snow Depth

Station Depth Elevation

Earthquake Activity

City Distance Mag. Time & Date
Minimum magnitude displayed is 2.5.

Coastal Water Temperatures

Place Temperature

Stations

Nearby Weather Stations

Station Location Temp. Windchill Dew Point Humidity Wind Precip. Elev Updated Type